createdAt,value
2018-08-09T00:01:02.076Z,23.40
2018-08-09T00:03:30.539Z,23.30
2018-08-09T00:05:58.678Z,23.30
2018-08-09T00:08:26.802Z,23.40
2018-08-09T00:10:54.911Z,23.30
2018-08-09T00:13:23.056Z,23.30
2018-08-09T00:15:51.240Z,23.30
2018-08-09T00:18:19.395Z,23.30
2018-08-09T00:20:48.520Z,23.30
2018-08-09T00:23:16.689Z,23.30
2018-08-09T00:25:44.860Z,23.30
2018-08-09T00:28:13.028Z,23.30
2018-08-09T00:30:41.172Z,23.20
2018-08-09T00:33:09.366Z,23.20
2018-08-09T00:35:37.573Z,23.20
2018-08-09T00:38:05.752Z,23.20
2018-08-09T00:40:34.005Z,23.00
2018-08-09T00:43:02.153Z,23.00
2018-08-09T00:45:30.317Z,23.00
2018-08-09T00:47:58.501Z,22.80
2018-08-09T00:50:26.665Z,22.80
2018-08-09T00:52:54.821Z,22.80
2018-08-09T00:55:22.981Z,22.70
2018-08-09T00:57:51.164Z,22.70
2018-08-09T01:00:19.313Z,22.70
2018-08-09T01:02:47.481Z,22.60
2018-08-09T01:05:15.637Z,22.60
2018-08-09T01:07:43.786Z,22.50
2018-08-09T01:10:11.945Z,22.50
2018-08-09T01:12:40.110Z,22.50
2018-08-09T01:15:08.269Z,22.50
2018-08-09T01:17:36.420Z,22.50
2018-08-09T01:20:05.064Z,22.50
2018-08-09T01:22:33.230Z,22.50
2018-08-09T01:25:01.373Z,22.50
2018-08-09T01:27:29.528Z,22.40
2018-08-09T01:29:57.685Z,22.40
2018-08-09T01:32:25.828Z,22.30
2018-08-09T01:34:54.016Z,22.30
2018-08-09T01:37:22.162Z,22.20
2018-08-09T01:39:50.313Z,22.20
2018-08-09T01:42:29.716Z,22.20
2018-08-09T01:44:57.853Z,22.20
2018-08-09T01:47:25.988Z,22.10
2018-08-09T01:49:54.252Z,22.10
2018-08-09T01:52:22.391Z,22.00
2018-08-09T01:54:50.545Z,22.00
2018-08-09T01:57:18.684Z,22.00
2018-08-09T01:59:46.828Z,21.90
2018-08-09T02:02:15.090Z,21.80
2018-08-09T02:04:43.267Z,21.80
2018-08-09T02:07:11.411Z,21.80
2018-08-09T02:09:39.581Z,21.80
2018-08-09T02:12:07.712Z,21.80
2018-08-09T02:14:35.883Z,21.80
2018-08-09T02:17:04.031Z,21.70
2018-08-09T02:19:32.196Z,21.70
2018-08-09T02:24:28.293Z,21.70
2018-08-09T02:26:56.577Z,21.60
2018-08-09T02:29:24.767Z,21.70
2018-08-09T02:31:52.920Z,21.60
2018-08-09T02:34:21.188Z,21.60
2018-08-09T02:36:49.376Z,21.60
2018-08-09T02:39:17.525Z,21.50
2018-08-09T02:41:46.544Z,21.50
2018-08-09T02:44:14.696Z,21.50
2018-08-09T02:46:42.877Z,21.50
2018-08-09T02:49:11.100Z,21.50
2018-08-09T02:51:39.265Z,21.50
2018-08-09T02:54:07.444Z,21.50
2018-08-09T02:56:35.581Z,21.50
2018-08-09T02:59:03.752Z,21.40
2018-08-09T03:01:31.896Z,21.40
2018-08-09T03:04:00.102Z,21.40
2018-08-09T03:06:28.277Z,21.40
2018-08-09T03:08:56.429Z,21.40
2018-08-09T03:11:24.632Z,21.30
2018-08-09T03:13:52.843Z,21.30
2018-08-09T03:16:20.993Z,21.30
2018-08-09T03:18:49.166Z,21.20
2018-08-09T03:21:17.329Z,21.20
2018-08-09T03:23:45.492Z,21.20
2018-08-09T03:26:13.638Z,21.20
2018-08-09T03:28:41.785Z,21.20
2018-08-09T03:31:09.928Z,21.20
2018-08-09T03:33:38.102Z,21.20
2018-08-09T03:36:06.272Z,21.20
2018-08-09T03:38:34.421Z,21.20
2018-08-09T03:41:02.605Z,21.20
2018-08-09T03:43:30.756Z,21.20
2018-08-09T03:45:58.918Z,21.20
2018-08-09T03:48:27.161Z,21.20
2018-08-09T03:50:55.314Z,21.20
2018-08-09T03:53:23.521Z,21.10
2018-08-09T03:55:51.669Z,21.10
2018-08-09T03:58:19.981Z,21.10
2018-08-09T04:00:48.085Z,21.10
2018-08-09T04:03:16.212Z,21.10
2018-08-09T04:05:44.358Z,21.10
2018-08-09T04:08:12.530Z,21.10
2018-08-09T04:10:40.692Z,21.10
2018-08-09T04:13:08.891Z,21.20
2018-08-09T04:15:37.040Z,21.20
2018-08-09T04:18:05.240Z,21.20
2018-08-09T04:20:33.406Z,21.10
2018-08-09T04:23:01.573Z,21.10
2018-08-09T04:25:30.114Z,21.10
2018-08-09T04:27:58.257Z,21.00
2018-08-09T04:30:26.412Z,21.10
2018-08-09T04:32:54.557Z,21.10
2018-08-09T04:35:22.716Z,21.20
2018-08-09T04:37:50.911Z,21.10
2018-08-09T04:40:19.004Z,21.10
2018-08-09T04:42:47.181Z,21.20
2018-08-09T04:45:15.323Z,21.10
2018-08-09T04:47:43.445Z,21.20
2018-08-09T04:50:11.600Z,21.10
2018-08-09T04:52:39.752Z,21.20
2018-08-09T04:55:07.975Z,21.30
2018-08-09T04:57:36.125Z,21.20
2018-08-09T05:00:05.008Z,21.20
2018-08-09T05:02:33.172Z,21.30
2018-08-09T05:05:01.388Z,21.30
2018-08-09T05:07:29.588Z,21.30
2018-08-09T05:10:01.982Z,21.20
2018-08-09T05:12:30.349Z,21.30
2018-08-09T05:14:58.492Z,21.30
2018-08-09T05:17:26.640Z,21.30
2018-08-09T05:19:54.814Z,21.30
2018-08-09T05:22:22.972Z,21.30
2018-08-09T05:24:51.107Z,21.40
2018-08-09T05:27:19.362Z,21.40
2018-08-09T05:29:47.511Z,21.30
2018-08-09T05:32:15.686Z,21.30
2018-08-09T05:34:43.876Z,21.30
2018-08-09T05:37:12.039Z,21.20
2018-08-09T05:39:40.194Z,21.20
2018-08-09T05:42:08.344Z,21.20
2018-08-09T05:44:36.511Z,21.20
2018-08-09T05:47:04.706Z,21.20
2018-08-09T05:49:32.853Z,21.30
2018-08-09T05:52:01.059Z,21.20
2018-08-09T05:54:29.277Z,21.40
2018-08-09T05:56:57.417Z,21.40
2018-08-09T05:59:25.585Z,21.30
2018-08-09T06:01:53.728Z,21.40
2018-08-09T06:04:21.885Z,21.40
2018-08-09T06:06:50.038Z,21.40
2018-08-09T06:09:18.311Z,21.50
2018-08-09T06:11:47.449Z,21.50
2018-08-09T06:14:15.644Z,21.50
2018-08-09T06:16:43.790Z,21.60
2018-08-09T06:19:11.928Z,21.70
2018-08-09T06:21:40.083Z,21.80
2018-08-09T06:24:08.251Z,21.80
2018-08-09T06:26:36.393Z,21.90
2018-08-09T06:29:04.579Z,22.10
2018-08-09T06:31:32.726Z,22.10
2018-08-09T06:34:00.919Z,22.10
2018-08-09T06:36:30.304Z,22.20
2018-08-09T06:38:58.453Z,22.20
2018-08-09T06:41:26.607Z,22.30
2018-08-09T06:43:54.804Z,22.30
2018-08-09T06:46:22.959Z,22.40
2018-08-09T06:48:51.140Z,22.50
2018-08-09T06:51:19.337Z,22.50
2018-08-09T06:53:47.486Z,22.50
2018-08-09T06:56:15.646Z,22.60
2018-08-09T06:58:43.868Z,22.80
2018-08-09T07:01:12.085Z,22.80
2018-08-09T07:03:40.322Z,22.80
2018-08-09T07:06:08.467Z,22.90
2018-08-09T07:08:36.648Z,23.00
2018-08-09T07:11:04.788Z,23.00
2018-08-09T07:13:32.914Z,23.10
2018-08-09T07:16:01.069Z,23.10
2018-08-09T07:18:29.247Z,23.20
2018-08-09T07:20:57.384Z,23.30
2018-08-09T07:23:25.640Z,23.40
2018-08-09T07:25:53.792Z,23.50
2018-08-09T07:28:21.949Z,23.50
2018-08-09T07:30:50.097Z,23.60
2018-08-09T07:33:18.241Z,23.70
2018-08-09T07:35:46.417Z,23.90
2018-08-09T07:38:14.572Z,24.10
2018-08-09T07:40:42.712Z,24.10
2018-08-09T07:43:10.859Z,24.20
2018-08-09T07:45:39.009Z,24.20
2018-08-09T07:48:07.184Z,24.30
2018-08-09T07:50:35.320Z,24.30
2018-08-09T07:53:04.978Z,24.40
2018-08-09T07:55:33.575Z,24.60
2018-08-09T07:58:01.998Z,24.60
2018-08-09T08:00:30.438Z,24.60
2018-08-09T08:02:58.875Z,24.70
2018-08-09T08:05:27.303Z,24.80
2018-08-09T08:10:24.073Z,25.00
2018-08-09T08:12:52.522Z,25.10
2018-08-09T08:17:49.414Z,25.20
2018-08-09T08:20:18.136Z,25.30
2018-08-09T08:22:46.775Z,25.50
2018-08-09T08:25:15.336Z,25.60
2018-08-09T08:27:43.835Z,25.60
2018-08-09T08:30:13.520Z,25.70
2018-08-09T08:32:42.641Z,25.90
2018-08-09T08:35:11.473Z,26.00
2018-08-09T08:37:40.421Z,26.20
2018-08-09T08:40:09.653Z,26.20
2018-08-09T08:42:38.358Z,26.10
2018-08-09T08:47:36.186Z,26.20
2018-08-09T08:50:11.534Z,26.20
2018-08-09T08:52:40.142Z,26.20
2018-08-09T08:55:09.937Z,26.30
2018-08-09T08:57:38.462Z,26.40
2018-08-09T09:00:08.240Z,26.50
2018-08-09T09:02:36.965Z,26.70
2018-08-09T09:10:12.328Z,27.20
2018-08-09T09:12:40.780Z,27.40
2018-08-09T09:17:39.427Z,27.50
2018-08-09T09:20:10.695Z,27.60
2018-08-09T09:27:36.095Z,27.90
2018-08-09T09:30:06.202Z,28.00
2018-08-09T09:32:34.617Z,28.20
2018-08-09T09:35:03.860Z,28.30
2018-08-09T09:37:32.277Z,28.40
2018-08-09T09:40:00.758Z,28.60
2018-08-09T09:42:29.275Z,28.90
2018-08-09T09:44:57.776Z,28.90
2018-08-09T09:47:26.381Z,28.90
2018-08-09T09:49:54.895Z,28.90
2018-08-09T09:52:23.440Z,29.10
2018-08-09T09:57:20.038Z,28.90
2018-08-09T09:59:48.585Z,28.90
2018-08-09T10:02:17.232Z,28.80
2018-08-09T10:09:42.035Z,28.80
2018-08-09T10:12:10.469Z,28.70
2018-08-09T10:14:38.926Z,28.70
2018-08-09T10:17:07.371Z,28.60
2018-08-09T10:19:35.796Z,28.70
2018-08-09T10:22:04.216Z,28.80
2018-08-09T10:24:32.580Z,28.80
2018-08-09T10:27:01.252Z,28.90
2018-08-09T10:29:29.614Z,28.90
2018-08-09T10:31:57.949Z,29.00
2018-08-09T10:34:26.436Z,28.90
2018-08-09T10:36:54.944Z,28.90
2018-08-09T10:39:23.374Z,29.00
2018-08-09T10:41:51.759Z,29.10
2018-08-09T10:44:20.219Z,29.40
2018-08-09T10:46:48.633Z,29.40
2018-08-09T10:49:17.060Z,29.40
2018-08-09T10:51:45.810Z,29.40
2018-08-09T10:54:14.209Z,29.40
2018-08-09T10:56:42.707Z,29.30
2018-08-09T10:59:11.159Z,29.40
2018-08-09T11:01:39.542Z,29.50
2018-08-09T11:04:07.959Z,29.60
2018-08-09T11:06:36.257Z,29.60
2018-08-09T11:09:07.715Z,29.70
2018-08-09T11:11:35.901Z,30.10
2018-08-09T11:16:32.010Z,30.40
2018-08-09T11:19:07.119Z,30.40
2018-08-09T11:21:35.485Z,29.90
2018-08-09T11:24:03.940Z,29.80
2018-08-09T11:26:39.974Z,29.80
2018-08-09T11:29:08.404Z,29.80
2018-08-09T11:31:36.857Z,29.60
2018-08-09T11:36:33.355Z,29.90
2018-08-09T11:39:01.883Z,30.20
2018-08-09T11:41:30.253Z,30.10
2018-08-09T11:43:58.623Z,30.30
2018-08-09T11:46:27.042Z,30.60
2018-08-09T11:48:55.504Z,30.30
2018-08-09T11:51:23.894Z,30.20
2018-08-09T11:53:52.240Z,30.50
2018-08-09T11:56:20.735Z,30.50
2018-08-09T11:58:49.150Z,30.80
2018-08-09T12:01:18.431Z,30.90
2018-08-09T12:06:14.894Z,30.80
2018-08-09T12:11:11.654Z,31.00
2018-08-09T12:13:40.204Z,31.20
2018-08-09T12:16:08.856Z,30.90
2018-08-09T12:18:37.216Z,31.00
2018-08-09T12:21:05.890Z,31.40
2018-08-09T12:23:34.436Z,31.60
2018-08-09T12:26:03.488Z,31.30
2018-08-09T12:28:32.026Z,31.30
2018-08-09T12:31:00.680Z,31.30
2018-08-09T12:35:57.329Z,31.50
2018-08-09T12:38:25.912Z,31.60
2018-08-09T12:40:54.316Z,31.50
2018-08-09T12:43:22.771Z,31.40
2018-08-09T12:45:51.376Z,31.40
2018-08-09T12:50:48.734Z,31.60
2018-08-09T12:53:17.413Z,31.60
2018-08-09T12:55:45.798Z,31.60
2018-08-09T12:58:14.223Z,31.70
2018-08-09T13:00:42.745Z,31.60
2018-08-09T13:03:11.227Z,31.70
2018-08-09T13:05:39.825Z,31.70
2018-08-09T13:08:08.226Z,31.40
2018-08-09T13:13:04.976Z,31.20
2018-08-09T13:15:33.354Z,31.10
2018-08-09T13:18:01.823Z,31.20
2018-08-09T13:20:30.170Z,31.10
2018-08-09T13:22:58.574Z,30.90
2018-08-09T13:25:26.919Z,27.80
2018-08-09T13:27:55.202Z,26.90
2018-08-09T13:30:23.617Z,26.10
2018-08-09T13:32:51.823Z,26.10
2018-08-09T13:35:20.002Z,25.20
2018-08-09T13:37:48.134Z,25.20
2018-08-09T13:40:16.411Z,25.20
2018-08-09T13:42:51.505Z,24.60
2018-08-09T13:45:20.674Z,24.00
2018-08-09T13:47:48.907Z,23.90
2018-08-09T13:50:18.532Z,24.00
2018-08-09T13:52:46.770Z,24.00
2018-08-09T13:55:15.603Z,24.20
2018-08-09T13:57:44.722Z,23.70
2018-08-09T14:00:13.718Z,23.40
2018-08-09T14:02:43.440Z,23.30
2018-08-09T14:05:11.653Z,23.00
2018-08-09T14:07:41.511Z,22.90
2018-08-09T14:10:14.024Z,22.90
2018-08-09T14:12:42.881Z,22.30
2018-08-09T14:15:12.712Z,22.40
2018-08-09T14:17:41.408Z,22.40
2018-08-09T14:20:11.625Z,22.30
2018-08-09T14:22:39.901Z,22.20
2018-08-09T14:25:08.328Z,22.30
2018-08-09T14:27:36.723Z,22.30
2018-08-09T14:30:05.704Z,22.70
2018-08-09T14:32:34.138Z,22.60
2018-08-09T14:35:02.438Z,22.80
2018-08-09T14:37:30.907Z,22.90
2018-08-09T14:39:59.196Z,23.10
2018-08-09T14:42:27.447Z,23.20
2018-08-09T14:44:55.704Z,23.20
2018-08-09T14:47:23.943Z,23.20
2018-08-09T14:49:52.277Z,23.20
2018-08-09T14:52:20.625Z,23.20
2018-08-09T14:54:48.871Z,23.20
2018-08-09T14:57:17.119Z,23.30
2018-08-09T14:59:45.324Z,23.90
2018-08-09T15:02:14.189Z,23.90
2018-08-09T15:04:42.369Z,24.40
2018-08-09T15:07:10.632Z,24.80
2018-08-09T15:09:38.905Z,24.80
2018-08-09T15:12:07.154Z,24.80
2018-08-09T15:14:35.324Z,24.80
2018-08-09T15:17:03.567Z,24.70
2018-08-09T15:19:31.804Z,24.70
2018-08-09T15:22:00.080Z,24.70
2018-08-09T15:24:28.313Z,24.80
2018-08-09T15:26:56.513Z,24.80
2018-08-09T15:29:24.691Z,24.80
2018-08-09T15:31:52.877Z,24.80
2018-08-09T15:34:21.089Z,24.80
2018-08-09T15:36:49.299Z,24.80
2018-08-09T15:39:17.437Z,24.80
2018-08-09T15:41:45.574Z,24.80
2018-08-09T15:44:14.069Z,24.90
2018-08-09T15:46:42.260Z,24.90
2018-08-09T15:49:11.570Z,25.60
2018-08-09T15:51:39.842Z,25.60
2018-08-09T15:54:08.199Z,29.40
2018-08-09T15:56:36.436Z,29.20
2018-08-09T15:59:04.895Z,29.30
2018-08-09T16:01:33.186Z,28.80
2018-08-09T16:04:01.555Z,29.90
2018-08-09T16:08:57.996Z,28.80
2018-08-09T16:11:26.536Z,26.80
2018-08-09T16:13:54.739Z,26.80
2018-08-09T16:16:23.024Z,28.00
2018-08-09T16:18:51.214Z,27.50
2018-08-09T16:21:19.456Z,26.70
2018-08-09T16:23:47.717Z,28.20
2018-08-09T16:26:15.981Z,28.90
2018-08-09T16:28:44.176Z,28.80
2018-08-09T16:31:12.525Z,27.80
2018-08-09T16:33:40.777Z,28.00
2018-08-09T16:36:08.974Z,28.50
2018-08-09T16:38:37.191Z,28.20
2018-08-09T16:41:05.421Z,28.50
2018-08-09T16:43:33.712Z,27.70
2018-08-09T16:46:01.934Z,27.70
2018-08-09T16:48:30.211Z,26.90
2018-08-09T16:50:58.664Z,26.30
2018-08-09T16:53:26.894Z,27.20
2018-08-09T16:55:55.178Z,26.70
2018-08-09T16:58:23.551Z,26.60
2018-08-09T17:00:51.981Z,26.30
2018-08-09T17:03:20.245Z,26.40
2018-08-09T17:05:48.451Z,26.30
2018-08-09T17:08:16.953Z,25.70
2018-08-09T17:10:45.206Z,25.60
2018-08-09T17:13:13.468Z,25.60
2018-08-09T17:15:41.698Z,26.00
2018-08-09T17:18:10.126Z,25.90
2018-08-09T17:20:38.757Z,26.00
2018-08-09T17:23:07.042Z,26.10
2018-08-09T17:25:35.238Z,25.90
2018-08-09T17:28:03.561Z,25.90
2018-08-09T17:30:31.751Z,25.70
2018-08-09T17:33:00.517Z,25.20
2018-08-09T17:35:29.100Z,25.10
2018-08-09T17:37:57.533Z,25.00
2018-08-09T17:40:30.085Z,24.90
2018-08-09T17:42:59.279Z,25.20
2018-08-09T17:45:29.357Z,25.20
2018-08-09T17:50:25.890Z,24.90
2018-08-09T17:52:57.080Z,24.90
2018-08-09T17:55:25.725Z,24.80
2018-08-09T17:57:54.035Z,24.80
2018-08-09T18:00:25.607Z,24.80
2018-08-09T18:02:54.221Z,24.60
2018-08-09T18:05:22.460Z,24.70
2018-08-09T18:07:51.024Z,24.70
2018-08-09T18:10:23.195Z,24.40
2018-08-09T18:12:51.542Z,24.40
2018-08-09T18:15:20.267Z,24.50
2018-08-09T18:17:48.661Z,24.60
2018-08-09T18:20:19.272Z,24.60
2018-08-09T18:22:48.374Z,24.80
2018-08-09T18:25:16.801Z,24.40
2018-08-09T18:27:45.048Z,24.30
2018-08-09T18:30:17.445Z,24.40
2018-08-09T18:32:45.697Z,24.20
2018-08-09T18:35:15.067Z,24.10
2018-08-09T18:37:43.274Z,24.10
2018-08-09T18:40:14.062Z,24.10
2018-08-09T18:42:42.246Z,23.90
2018-08-09T18:45:11.078Z,23.90
2018-08-09T18:47:39.658Z,23.90
2018-08-09T18:50:22.928Z,23.80
2018-08-09T18:52:51.270Z,23.80
2018-08-09T18:55:20.027Z,23.70
2018-08-09T18:57:48.760Z,23.70
2018-08-09T19:00:18.690Z,23.70
2018-08-09T19:02:47.848Z,23.60
2018-08-09T19:05:16.264Z,23.60
2018-08-09T19:07:44.632Z,23.50
2018-08-09T19:10:15.636Z,23.50
2018-08-09T19:12:43.932Z,23.50
2018-08-09T19:15:12.731Z,23.40
2018-08-09T19:17:41.248Z,23.40
2018-08-09T19:20:15.233Z,23.40
2018-08-09T19:25:11.773Z,23.30
2018-08-09T19:27:40.069Z,23.30
2018-08-09T19:30:08.950Z,23.30
2018-08-09T19:32:37.429Z,23.30
2018-08-09T19:35:07.570Z,23.20
2018-08-09T19:37:35.773Z,23.20
2018-08-09T19:40:04.679Z,23.20
2018-08-09T19:42:32.880Z,23.20
2018-08-09T19:45:01.299Z,23.20
2018-08-09T19:47:29.729Z,23.20
2018-08-09T19:49:57.904Z,23.20
2018-08-09T19:52:26.181Z,23.20
2018-08-09T19:54:54.393Z,23.20
2018-08-09T19:57:22.613Z,23.20
2018-08-09T19:59:51.026Z,23.20
2018-08-09T20:02:19.246Z,23.10
2018-08-09T20:04:47.396Z,23.10
2018-08-09T20:07:15.619Z,23.10
2018-08-09T20:09:43.904Z,23.10
2018-08-09T20:12:12.158Z,23.10
2018-08-09T20:14:40.455Z,23.10
2018-08-09T20:17:08.705Z,23.10
2018-08-09T20:19:36.877Z,23.00
2018-08-09T20:22:07.097Z,23.00
2018-08-09T20:24:35.292Z,23.00
2018-08-09T20:27:03.486Z,23.00
2018-08-09T20:29:31.678Z,23.00
2018-08-09T20:31:59.848Z,23.00
2018-08-09T20:34:29.077Z,22.80
2018-08-09T20:36:57.419Z,22.80
2018-08-09T20:39:25.819Z,22.80
2018-08-09T20:41:53.977Z,22.70
2018-08-09T20:44:22.449Z,22.80
2018-08-09T20:46:50.613Z,22.80
2018-08-09T20:49:18.858Z,22.80
2018-08-09T20:51:47.160Z,22.70
2018-08-09T20:54:15.350Z,22.60
2018-08-09T20:56:50.145Z,22.50
2018-08-09T20:59:18.337Z,22.50
2018-08-09T21:01:46.496Z,22.50
2018-08-09T21:04:14.947Z,22.40
2018-08-09T21:06:43.090Z,22.30
2018-08-09T21:09:12.584Z,22.30
2018-08-09T21:11:41.281Z,22.30
2018-08-09T21:14:16.060Z,22.30
2018-08-09T21:16:44.299Z,22.20
2018-08-09T21:19:12.504Z,22.20
2018-08-09T21:21:40.660Z,22.20
2018-08-09T21:24:08.845Z,22.10
2018-08-09T21:26:37.028Z,22.10
2018-08-09T21:29:05.208Z,22.00
2018-08-09T21:31:33.461Z,22.00
2018-08-09T21:34:01.617Z,21.90
2018-08-09T21:36:29.861Z,21.90
2018-08-09T21:38:58.262Z,21.80
2018-08-09T21:41:26.413Z,21.70
2018-08-09T21:43:54.642Z,21.70
2018-08-09T21:46:22.865Z,21.70
2018-08-09T21:48:51.090Z,21.60
2018-08-09T21:51:19.261Z,21.60
2018-08-09T21:53:47.449Z,21.60
2018-08-09T21:56:15.658Z,21.60
2018-08-09T21:58:43.851Z,21.50
2018-08-09T22:01:13.002Z,21.40
2018-08-09T22:03:41.163Z,21.40
2018-08-09T22:08:50.521Z,21.20
2018-08-09T22:11:24.106Z,21.30
2018-08-09T22:13:57.747Z,21.30
2018-08-09T22:16:31.458Z,21.30
2018-08-09T22:19:04.943Z,21.30
2018-08-09T22:21:38.629Z,21.10
2018-08-09T22:24:06.849Z,21.10
2018-08-09T22:26:35.040Z,21.10
2018-08-09T22:29:03.298Z,21.10
2018-08-09T22:31:31.493Z,21.10
2018-08-09T22:33:59.677Z,21.00
2018-08-09T22:36:27.834Z,20.90
2018-08-09T22:38:56.096Z,20.90
2018-08-09T22:41:24.248Z,20.90
2018-08-09T22:43:52.406Z,20.90
2018-08-09T22:46:20.553Z,20.80
2018-08-09T22:48:48.791Z,20.80
2018-08-09T22:51:16.968Z,20.80
2018-08-09T22:53:45.138Z,20.70
2018-08-09T22:56:13.302Z,20.80
2018-08-09T22:58:41.489Z,20.80
2018-08-09T23:01:09.661Z,20.70
2018-08-09T23:03:37.939Z,20.70
2018-08-09T23:06:06.716Z,20.70
2018-08-09T23:08:34.941Z,20.60
2018-08-09T23:11:03.133Z,20.50
2018-08-09T23:13:31.354Z,20.50
2018-08-09T23:18:34.210Z,20.40
2018-08-09T23:21:02.380Z,20.30
2018-08-09T23:23:30.608Z,20.30
2018-08-09T23:25:58.772Z,20.20
2018-08-09T23:28:26.952Z,20.20
2018-08-09T23:30:55.120Z,20.20
2018-08-09T23:33:24.826Z,20.20
2018-08-09T23:35:53.173Z,20.20
2018-08-09T23:38:21.383Z,20.10
2018-08-09T23:40:49.544Z,20.10
2018-08-09T23:43:17.708Z,20.10
2018-08-09T23:45:45.940Z,19.90
2018-08-09T23:48:14.092Z,19.90
2018-08-09T23:50:42.267Z,19.90
2018-08-09T23:53:10.425Z,19.80
2018-08-09T23:55:38.597Z,19.90
2018-08-09T23:58:06.770Z,19.90
